createdAt,value
2023-04-29T00:03:58.818Z,227.47
2023-04-29T00:14:02.624Z,225.83
2023-04-29T00:24:08.328Z,229.27
2023-04-29T00:34:11.952Z,218.87
2023-04-29T00:44:17.174Z,225.47
2023-04-29T00:54:20.692Z,224.43
2023-04-29T01:04:25.502Z,224.70
2023-04-29T01:14:29.865Z,224.33
2023-04-29T01:24:35.200Z,223.27
2023-04-29T01:34:49.368Z,224.57
2023-04-29T01:44:57.146Z,227.17
2023-04-29T01:55:02.146Z,231.47
2023-04-29T02:05:17.289Z,229.10
2023-04-29T02:15:29.840Z,227.37
2023-04-29T02:25:34.748Z,228.17
2023-04-29T02:35:38.278Z,229.37
2023-04-29T02:45:43.148Z,234.67
2023-04-29T02:55:47.270Z,232.63
2023-04-29T03:05:52.973Z,233.40
2023-04-29T03:15:58.688Z,236.77
2023-04-29T03:26:03.925Z,233.73
2023-04-29T03:36:08.848Z,232.83
2023-04-29T03:46:17.763Z,238.50
2023-04-29T03:56:23.039Z,239.10
2023-04-29T04:06:28.056Z,244.70
2023-04-29T04:16:31.855Z,232.70
2023-04-29T04:26:37.021Z,241.00
2023-04-29T04:36:40.394Z,235.23
2023-04-29T04:46:45.478Z,237.77
2023-04-29T04:56:52.643Z,233.70
2023-04-29T05:06:58.279Z,240.53
2023-04-29T05:17:05.708Z,238.00
2023-04-29T05:27:10.797Z,247.07
2023-04-29T05:37:15.265Z,245.90
2023-04-29T05:47:37.941Z,239.33
2023-04-29T05:57:41.673Z,239.50
2023-04-29T06:07:46.842Z,234.90
2023-04-29T06:18:20.966Z,227.60
2023-04-29T06:28:26.852Z,229.20
2023-04-29T06:38:30.924Z,224.90
2023-04-29T06:49:06.878Z,224.60
2023-04-29T06:59:12.259Z,226.80
2023-04-29T07:09:17.081Z,225.60
2023-04-29T07:19:20.515Z,223.30
2023-04-29T07:29:25.335Z,222.17
2023-04-29T07:39:29.132Z,246.07
2023-04-29T07:49:35.683Z,222.83
2023-04-29T07:59:39.567Z,227.33
2023-04-29T08:09:44.404Z,221.37
2023-04-29T08:19:48.011Z,223.80
2023-04-29T08:29:52.789Z,221.13
2023-04-29T08:39:56.249Z,219.70
2023-04-29T08:50:05.409Z,230.20
2023-04-29T09:00:11.303Z,228.00
2023-04-29T09:10:17.300Z,218.73
2023-04-29T09:20:31.305Z,225.60
2023-04-29T09:30:47.872Z,221.50
2023-04-29T09:40:59.406Z,223.40
2023-04-29T09:51:05.121Z,222.90
2023-04-29T10:01:09.300Z,226.77
2023-04-29T10:11:15.235Z,213.07
2023-04-29T10:21:23.150Z,229.25
2023-04-29T10:31:30.239Z,224.18
2023-04-29T10:41:39.376Z,221.35
2023-04-29T10:51:45.982Z,236.68
2023-04-29T11:01:51.317Z,224.67
2023-04-29T11:12:05.610Z,216.10
2023-04-29T11:22:30.355Z,225.73
2023-04-29T11:32:35.846Z,227.67
2023-04-29T11:42:46.693Z,217.47
2023-04-29T11:52:51.039Z,214.60
2023-04-29T12:02:55.956Z,216.83
2023-04-29T12:13:00.314Z,223.27
2023-04-29T12:23:14.759Z,215.77
2023-04-29T12:33:22.117Z,218.43
2023-04-29T12:43:29.928Z,219.27
2023-04-29T12:53:33.798Z,216.87
2023-04-29T13:03:38.765Z,216.57
2023-04-29T13:13:42.437Z,220.97
2023-04-29T13:23:48.368Z,222.07
2023-04-29T13:33:54.042Z,220.47
2023-04-29T13:43:59.048Z,236.13
2023-04-29T13:54:47.600Z,227.77
2023-04-29T14:04:28.741Z,228.67
2023-04-29T14:14:32.225Z,234.67
2023-04-29T14:24:37.387Z,246.03
2023-04-29T14:34:40.817Z,238.90
2023-04-29T14:44:45.756Z,228.13
2023-04-29T14:54:49.130Z,227.60
2023-04-29T15:04:54.768Z,229.30
2023-04-29T15:14:58.359Z,229.37
2023-04-29T15:25:03.213Z,220.67
2023-04-29T15:35:07.933Z,226.03
2023-04-29T15:45:14.000Z,223.10
2023-04-29T15:55:18.606Z,220.60
2023-04-29T16:05:23.732Z,224.17
2023-04-29T16:15:27.495Z,217.07
2023-04-29T16:25:32.223Z,228.20
2023-04-29T16:35:35.665Z,227.97
2023-04-29T16:45:40.991Z,239.37
2023-04-29T16:55:44.343Z,214.90
2023-04-29T17:05:49.371Z,219.67
2023-04-29T17:15:52.831Z,228.53
2023-04-29T17:25:57.981Z,222.00
2023-04-29T17:36:02.402Z,228.53
2023-04-29T17:46:07.252Z,230.20
2023-04-29T17:56:10.675Z,224.87
2023-04-29T18:06:15.460Z,232.73
2023-04-29T18:16:18.870Z,232.77
2023-04-29T18:26:24.279Z,232.20
2023-04-29T18:36:28.167Z,231.23
2023-04-29T18:46:33.062Z,224.07
2023-04-29T18:56:37.709Z,223.47
2023-04-29T19:06:44.659Z,218.50
2023-04-29T19:16:48.187Z,221.30
2023-04-29T19:26:52.928Z,229.87
2023-04-29T19:36:56.360Z,218.10
2023-04-29T19:47:01.195Z,225.60
2023-04-29T19:57:04.988Z,222.03
2023-04-29T20:07:09.840Z,226.40
2023-04-29T20:17:13.608Z,227.13
2023-04-29T20:27:18.580Z,228.40
2023-04-29T20:37:22.012Z,233.87
2023-04-29T20:47:27.712Z,224.00
2023-04-29T20:57:32.582Z,234.70
2023-04-29T21:07:38.051Z,239.30
2023-04-29T21:17:41.951Z,245.03
2023-04-29T21:27:46.730Z,229.83
2023-04-29T21:37:50.074Z,224.40
2023-04-29T21:47:55.602Z,231.00
2023-04-29T21:57:59.405Z,228.60
2023-04-29T22:08:07.386Z,231.03
2023-04-29T22:18:11.044Z,232.13
2023-04-29T22:28:16.095Z,232.60
2023-04-29T22:38:19.427Z,236.93
2023-04-29T22:48:27.630Z,243.27
2023-04-29T22:58:32.620Z,251.80
2023-04-29T23:08:37.392Z,254.03
2023-04-29T23:18:40.810Z,254.50
2023-04-29T23:28:45.855Z,254.07
2023-04-29T23:38:49.232Z,243.40
2023-04-29T23:48:53.973Z,237.47
2023-04-29T23:58:57.329Z,234.93
